createdAt,value
2019-04-27T02:31:40.354Z,13.10
2019-04-27T02:34:12.332Z,11.03
2019-04-27T02:36:41.813Z,13.18
2019-04-27T02:39:11.273Z,13.32
2019-04-27T02:41:40.726Z,14.87
2019-04-27T02:44:19.986Z,14.53
2019-04-27T02:46:50.221Z,14.60
2019-04-27T02:49:20.714Z,15.25
2019-04-27T02:52:24.382Z,13.85
2019-04-27T02:54:53.867Z,19.00
2019-04-27T02:57:23.642Z,16.85
2019-04-27T02:59:53.100Z,21.75
2019-04-27T03:02:40.471Z,19.87
2019-04-27T03:05:13.037Z,22.42
2019-04-27T03:07:42.864Z,22.90
2019-04-27T03:10:12.490Z,24.12
2019-04-27T03:12:46.730Z,21.00
2019-04-27T03:15:23.803Z,27.95
2019-04-27T03:18:10.926Z,23.73
2019-04-27T03:20:50.854Z,23.20
2019-04-27T03:23:20.333Z,27.30
2019-04-27T03:26:11.790Z,26.17
2019-04-27T03:28:41.253Z,28.00
2019-04-27T03:31:13.594Z,23.30
2019-04-27T03:33:43.135Z,26.20
2019-04-27T03:36:13.413Z,28.70
2019-04-27T03:38:43.301Z,29.72
2019-04-27T03:41:12.978Z,28.85
2019-04-27T03:43:42.436Z,26.48
2019-04-27T03:46:12.077Z,27.27
2019-04-27T03:48:41.509Z,26.82
2019-04-27T03:51:40.198Z,28.98
2019-04-27T03:54:34.799Z,33.53
2019-04-27T03:57:40.288Z,32.98
2019-04-27T04:00:15.337Z,33.23
2019-04-27T04:02:44.794Z,33.33
2019-04-27T04:05:14.331Z,32.15
2019-04-27T04:07:43.767Z,35.20
2019-04-27T04:10:13.865Z,33.58
2019-04-27T04:12:56.405Z,32.75
2019-04-27T04:15:52.222Z,38.13
2019-04-27T04:18:22.113Z,36.35
2019-04-27T04:20:51.558Z,35.75
2019-04-27T04:23:20.956Z,32.73
2019-04-27T04:25:50.387Z,33.80
2019-04-27T04:28:20.252Z,28.35
2019-04-27T04:30:50.276Z,34.30
2019-04-27T04:33:20.753Z,33.65
2019-04-27T04:35:50.390Z,35.95
2019-04-27T04:38:20.669Z,34.53
2019-04-27T04:40:59.110Z,30.68
2019-04-27T04:43:36.498Z,35.13
2019-04-27T04:46:23.957Z,29.20
2019-04-27T04:48:53.418Z,31.25
2019-04-27T04:51:22.822Z,32.55
2019-04-27T04:53:52.654Z,31.35
2019-04-27T04:56:22.082Z,29.35
2019-04-27T04:58:51.653Z,30.25
2019-04-27T05:01:21.097Z,28.60
2019-04-27T05:03:50.893Z,29.85
2019-04-27T05:06:20.327Z,31.60
2019-04-27T05:08:49.782Z,28.55
2019-04-27T05:11:19.665Z,22.60
2019-04-27T05:13:49.481Z,26.60
2019-04-27T05:16:19.074Z,26.90
2019-04-27T05:18:49.550Z,25.43
2019-04-27T05:21:44.188Z,25.10
2019-04-27T05:24:13.703Z,24.25
2019-04-27T05:26:43.126Z,24.40
2019-04-27T05:29:12.635Z,24.23
2019-04-27T05:31:42.049Z,26.70
2019-04-27T05:34:11.534Z,23.87
2019-04-27T05:36:48.372Z,23.20
2019-04-27T05:39:13.341Z,25.30
2019-04-27T05:41:42.902Z,25.68
2019-04-27T05:44:20.826Z,24.30
2019-04-27T05:47:00.752Z,26.73
2019-04-27T05:49:36.293Z,25.05
2019-04-27T05:52:25.297Z,25.48
2019-04-27T05:54:54.718Z,26.00
2019-04-27T05:57:24.214Z,29.18
2019-04-27T05:59:54.757Z,28.60
2019-04-27T06:02:25.937Z,26.27
2019-04-27T06:04:55.385Z,30.97
2019-04-27T06:07:24.820Z,26.25
2019-04-27T06:09:54.258Z,30.48
2019-04-27T06:12:23.718Z,28.40
2019-04-27T06:14:53.150Z,30.45
2019-04-27T06:17:23.077Z,33.63
2019-04-27T06:19:52.788Z,31.00
2019-04-27T06:22:22.197Z,31.97
2019-04-27T06:24:54.373Z,28.87
2019-04-27T06:27:22.695Z,28.50
2019-04-27T06:29:52.145Z,29.60
2019-04-27T06:32:21.561Z,36.23
2019-04-27T06:34:51.014Z,36.70
2019-04-27T06:37:21.601Z,31.37
2019-04-27T06:39:51.202Z,29.50
2019-04-27T06:42:20.803Z,30.05
2019-04-27T06:44:50.278Z,29.85
2019-04-27T06:47:19.737Z,31.68
2019-04-27T06:49:49.576Z,29.00
2019-04-27T06:52:19.024Z,35.45
2019-04-27T06:54:48.628Z,32.30
2019-04-27T06:57:19.230Z,34.43
2019-04-27T06:59:50.683Z,29.05
2019-04-27T07:02:19.805Z,31.80
2019-04-27T07:04:51.016Z,30.92
2019-04-27T07:07:20.505Z,28.65
2019-04-27T07:09:49.933Z,33.85
2019-04-27T07:12:19.372Z,31.97
2019-04-27T07:14:52.877Z,41.20
2019-04-27T07:17:19.985Z,51.48
2019-04-27T07:19:49.766Z,36.73
2019-04-27T07:22:20.091Z,40.35
2019-04-27T07:24:49.608Z,36.93
2019-04-27T07:27:21.210Z,36.33
2019-04-27T07:29:50.183Z,37.15
2019-04-27T07:32:19.622Z,31.25
2019-04-27T07:34:51.127Z,32.58
2019-04-27T07:37:20.549Z,29.35
2019-04-27T07:39:50.388Z,35.08
2019-04-27T07:42:24.098Z,27.77
2019-04-27T07:44:59.545Z,31.40
2019-04-27T07:47:31.068Z,35.58
2019-04-27T07:50:02.737Z,29.70
2019-04-27T07:52:32.169Z,34.88
2019-04-27T07:55:01.609Z,23.42
2019-04-27T07:57:31.129Z,28.83
2019-04-27T08:00:00.673Z,22.37
2019-04-27T08:02:30.125Z,23.10
2019-04-27T08:05:00.018Z,19.87
2019-04-27T08:07:29.528Z,23.42
2019-04-27T08:10:01.093Z,16.95
2019-04-27T08:12:30.073Z,19.60
2019-04-27T08:15:00.063Z,18.20
2019-04-27T08:17:30.261Z,17.87
2019-04-27T08:19:59.945Z,18.82
2019-04-27T08:22:29.365Z,20.75
2019-04-27T08:24:59.504Z,15.72
2019-04-27T08:27:49.320Z,21.23
2019-04-27T08:30:29.658Z,15.18
2019-04-27T08:32:59.424Z,15.35
2019-04-27T08:35:31.054Z,14.40
2019-04-27T08:38:00.068Z,14.25
2019-04-27T08:40:29.540Z,15.83
2019-04-27T08:42:59.294Z,14.10
2019-04-27T08:45:29.381Z,13.32
2019-04-27T08:47:59.577Z,17.10
2019-04-27T08:50:29.214Z,17.00
2019-04-27T08:53:00.695Z,16.45
2019-04-27T08:55:30.063Z,16.10
2019-04-27T08:57:59.507Z,16.67
2019-04-27T09:00:29.465Z,18.90
2019-04-27T09:02:59.515Z,17.95
2019-04-27T09:05:29.175Z,15.03
2019-04-27T09:08:18.911Z,18.25
2019-04-27T09:10:58.901Z,14.85
2019-04-27T09:13:48.762Z,18.27
2019-04-27T09:16:25.924Z,16.65
2019-04-27T09:18:59.770Z,18.57
2019-04-27T09:21:48.553Z,22.10
2019-04-27T09:24:18.827Z,17.77
2019-04-27T09:26:49.230Z,20.17
2019-04-27T09:29:19.792Z,22.45
2019-04-27T09:31:49.845Z,25.02
2019-04-27T09:34:19.273Z,23.10
2019-04-27T09:36:48.694Z,28.83
2019-04-27T09:39:18.240Z,28.52
2019-04-27T09:41:48.372Z,28.15
2019-04-27T09:44:18.173Z,25.95
2019-04-27T09:46:48.505Z,34.53
2019-04-27T09:49:17.954Z,31.12
2019-04-27T09:51:47.378Z,27.95
2019-04-27T09:54:16.825Z,31.20
2019-04-27T09:56:46.773Z,28.65
2019-04-27T09:59:16.387Z,32.95
2019-04-27T10:01:46.487Z,35.25
2019-04-27T10:04:17.519Z,33.60
2019-04-27T10:06:48.823Z,34.13
2019-04-27T10:09:37.481Z,33.35
2019-04-27T10:12:07.792Z,30.37
2019-04-27T10:14:37.337Z,28.50
2019-04-27T10:17:07.022Z,29.02
2019-04-27T10:19:36.695Z,29.98
2019-04-27T10:22:06.316Z,27.10
2019-04-27T10:24:55.903Z,33.75
2019-04-27T10:27:25.947Z,31.33
2019-04-27T10:29:56.643Z,28.10
2019-04-27T10:32:26.491Z,28.30
2019-04-27T10:34:56.283Z,28.47
2019-04-27T10:37:25.761Z,30.27
2019-04-27T10:39:56.059Z,36.73
2019-04-27T10:42:27.169Z,34.38
2019-04-27T10:44:56.672Z,33.38
2019-04-27T10:47:26.142Z,43.55
2019-04-27T10:49:56.691Z,33.40
2019-04-27T10:52:26.226Z,35.40
2019-04-27T10:54:57.294Z,32.88
2019-04-27T10:57:26.963Z,33.55
2019-04-27T10:59:56.414Z,32.90
2019-04-27T11:02:25.871Z,33.30
2019-04-27T11:05:08.375Z,35.33
2019-04-27T11:07:39.445Z,43.65
2019-04-27T11:10:09.096Z,30.05
2019-04-27T11:12:38.584Z,32.03
2019-04-27T11:15:09.050Z,26.00
2019-04-27T11:17:38.517Z,24.70
2019-04-27T11:20:09.414Z,24.27
2019-04-27T11:22:38.891Z,26.25
2019-04-27T11:25:08.568Z,25.48
2019-04-27T11:27:38.037Z,26.57
2019-04-27T11:30:11.499Z,18.37
2019-04-27T11:32:42.084Z,20.97
2019-04-27T11:35:35.304Z,17.90
2019-04-27T11:38:05.718Z,20.82
2019-04-27T11:40:36.437Z,29.60
2019-04-27T11:43:06.968Z,17.30
2019-04-27T11:45:36.819Z,13.15
2019-04-27T11:48:06.406Z,23.12
2019-04-27T11:50:35.922Z,20.15
2019-04-27T11:53:06.210Z,20.25
2019-04-27T11:55:35.765Z,17.77
2019-04-27T11:58:06.565Z,18.87
2019-04-27T12:00:36.574Z,21.70
2019-04-27T12:03:06.742Z,17.50
2019-04-27T12:05:36.346Z,19.10
2019-04-27T12:08:06.328Z,16.77
2019-04-27T12:10:36.390Z,17.62
2019-04-27T12:13:07.560Z,15.05
2019-04-27T12:15:37.236Z,13.88
2019-04-27T12:18:08.828Z,13.70
2019-04-27T12:20:37.810Z,15.50
2019-04-27T12:23:07.254Z,15.53
2019-04-27T12:25:37.447Z,16.63
2019-04-27T12:28:21.650Z,14.65
2019-04-27T12:30:56.949Z,21.17
2019-04-27T12:33:27.706Z,16.65
2019-04-27T12:35:57.219Z,19.73
2019-04-27T12:38:28.217Z,15.90
2019-04-27T12:40:57.931Z,16.90
2019-04-27T12:43:27.714Z,17.12
2019-04-27T12:45:57.243Z,17.40
2019-04-27T12:48:26.674Z,13.35
2019-04-27T12:50:56.424Z,13.98
2019-04-27T12:53:52.307Z,13.03
2019-04-27T12:56:45.635Z,11.70
2019-04-27T12:59:36.837Z,12.37
2019-04-27T13:02:06.921Z,17.12
2019-04-27T13:04:38.296Z,9.93
2019-04-27T13:07:07.901Z,9.00
2019-04-27T13:09:37.553Z,9.35
2019-04-27T13:12:06.997Z,14.18
2019-04-27T13:14:36.601Z,8.25
2019-04-27T13:17:06.326Z,8.93
2019-04-27T13:19:36.582Z,12.98
2019-04-27T13:22:06.248Z,10.10
2019-04-27T13:24:35.971Z,12.35
2019-04-27T13:27:06.474Z,16.60
2019-04-27T13:29:36.057Z,12.50
2019-04-27T13:32:06.099Z,16.95
2019-04-27T13:34:36.383Z,12.10
2019-04-27T13:37:26.302Z,11.78
2019-04-27T13:40:04.723Z,13.18
2019-04-27T13:42:28.898Z,12.82
2019-04-27T13:44:59.943Z,13.25
2019-04-27T13:47:57.745Z,13.60
2019-04-27T13:50:35.436Z,11.68
2019-04-27T13:53:05.996Z,10.78
2019-04-27T13:55:36.271Z,11.00
2019-04-27T13:58:05.986Z,17.23
2019-04-27T14:00:37.749Z,19.67
2019-04-27T14:03:06.486Z,13.53
2019-04-27T14:05:35.941Z,14.28
2019-04-27T14:08:05.353Z,15.80
2019-04-27T14:10:34.813Z,15.80
2019-04-27T14:13:04.259Z,14.00
2019-04-27T14:15:33.988Z,14.03
2019-04-27T14:18:03.499Z,14.07
2019-04-27T14:20:33.026Z,15.20
2019-04-27T14:23:18.771Z,13.25
2019-04-27T14:25:48.595Z,11.80
2019-04-27T14:28:18.377Z,11.97
2019-04-27T14:30:48.720Z,12.90
2019-04-27T14:33:18.862Z,12.65
2019-04-27T14:35:49.887Z,10.68
2019-04-27T14:38:19.617Z,12.75
2019-04-27T14:40:50.366Z,10.35
2019-04-27T14:43:20.002Z,26.87
2019-04-27T14:45:49.412Z,10.63
2019-04-27T14:48:18.866Z,11.18
2019-04-27T14:50:48.602Z,17.77
2019-04-27T14:53:18.141Z,9.90
2019-04-27T14:55:49.013Z,9.33
2019-04-27T14:58:19.376Z,15.23
2019-04-27T15:00:49.909Z,9.93
2019-04-27T15:03:19.550Z,14.05
2019-04-27T15:05:49.759Z,20.23
2019-04-27T15:08:20.694Z,35.60
2019-04-27T15:10:50.256Z,26.62
2019-04-27T15:13:19.725Z,14.35
2019-04-27T15:15:49.150Z,7.30
2019-04-27T15:18:19.767Z,11.95
2019-04-27T15:20:49.221Z,6.87
2019-04-27T15:23:20.101Z,11.60
2019-04-27T15:25:50.074Z,10.63
2019-04-27T15:28:23.402Z,7.50
2019-04-27T15:31:23.581Z,13.70
2019-04-27T15:34:23.371Z,7.50
2019-04-27T15:37:15.933Z,9.35
2019-04-27T15:40:12.577Z,7.75
2019-04-27T15:43:02.693Z,8.65
2019-04-27T15:45:32.179Z,5.58
2019-04-27T15:48:01.603Z,6.97
2019-04-27T15:50:32.358Z,6.83
2019-04-27T15:53:03.030Z,9.05
2019-04-27T15:55:36.901Z,8.88
2019-04-27T15:58:04.078Z,6.60
2019-04-27T16:00:33.890Z,8.85
2019-04-27T16:03:03.650Z,9.35
2019-04-27T16:05:35.839Z,12.03
2019-04-27T16:08:12.501Z,12.40
2019-04-27T16:10:40.080Z,13.20
2019-04-27T16:13:13.354Z,41.20
2019-04-27T16:15:39.491Z,19.87
2019-04-27T16:18:08.947Z,18.70
2019-04-27T16:20:38.522Z,17.57
2019-04-27T16:23:28.195Z,12.50
2019-04-27T16:26:00.450Z,13.25
2019-04-27T16:28:29.450Z,12.25
2019-04-27T16:30:58.965Z,14.05
2019-04-27T16:33:28.814Z,11.00
2019-04-27T16:36:07.358Z,10.03
2019-04-27T16:38:49.404Z,11.95
2019-04-27T16:41:18.835Z,12.63
2019-04-27T16:43:48.975Z,13.60
2019-04-27T16:46:19.082Z,13.32
2019-04-27T16:48:49.625Z,13.05
2019-04-27T16:51:19.078Z,14.13
2019-04-27T16:53:48.935Z,19.77
2019-04-27T16:56:20.651Z,11.57
2019-04-27T16:58:56.484Z,16.73
2019-04-27T17:01:23.698Z,14.10
2019-04-27T17:03:55.824Z,17.87
2019-04-27T17:06:29.597Z,16.75
2019-04-27T17:09:05.640Z,17.40
2019-04-27T17:11:30.449Z,11.53
2019-04-27T17:14:15.263Z,14.43
2019-04-27T17:17:03.815Z,15.00
2019-04-27T17:19:42.478Z,13.40
2019-04-27T17:22:14.573Z,9.43
2019-04-27T17:24:46.789Z,12.82
2019-04-27T17:27:16.430Z,15.10
2019-04-27T17:29:50.106Z,18.60
2019-04-27T17:32:41.025Z,20.50
2019-04-27T17:35:14.750Z,17.92
2019-04-27T17:37:41.618Z,22.98
2019-04-27T17:40:15.154Z,15.32
2019-04-27T17:42:43.393Z,30.40
2019-04-27T17:45:13.034Z,27.27
2019-04-27T17:47:42.516Z,33.98
2019-04-27T17:50:12.418Z,38.20
2019-04-27T17:52:41.841Z,36.50
2019-04-27T17:55:11.345Z,40.85
2019-04-27T17:57:40.788Z,38.65
2019-04-27T18:00:10.741Z,39.03
2019-04-27T18:02:42.431Z,40.95
2019-04-27T18:05:13.726Z,46.15
2019-04-27T18:07:44.171Z,49.58
2019-04-27T18:10:21.110Z,41.73
2019-04-27T18:12:48.553Z,43.55
2019-04-27T18:15:16.191Z,40.35
2019-04-27T18:17:51.752Z,38.70
2019-04-27T18:20:22.139Z,36.38
2019-04-27T18:22:58.922Z,45.83
2019-04-27T18:25:29.351Z,64.03
2019-04-27T18:28:07.954Z,63.02
2019-04-27T18:31:00.142Z,66.42
2019-04-27T18:33:32.576Z,89.65
2019-04-27T18:36:05.325Z,86.22
2019-04-27T18:38:35.500Z,86.87
2019-04-27T18:41:08.018Z,83.95
2019-04-27T18:43:34.677Z,76.57
2019-04-27T18:46:04.274Z,78.97
2019-04-27T18:48:55.773Z,67.27
2019-04-27T18:51:34.028Z,60.52
2019-04-27T18:54:03.757Z,59.18
2019-04-27T18:56:37.675Z,59.75
2019-04-27T18:59:04.748Z,47.17
2019-04-27T19:01:34.539Z,45.48
2019-04-27T19:04:05.691Z,46.85
2019-04-27T19:06:35.892Z,39.65
2019-04-27T19:09:08.308Z,37.30
2019-04-27T19:11:38.463Z,44.83
2019-04-27T19:14:08.458Z,42.98
2019-04-27T19:16:38.531Z,48.80
2019-04-27T19:19:08.797Z,47.00
2019-04-27T19:21:39.213Z,56.53
2019-04-27T19:24:09.234Z,54.73
2019-04-27T19:27:15.047Z,56.63
2019-04-27T19:29:38.180Z,56.85
2019-04-27T19:32:08.794Z,57.20
2019-04-27T19:34:38.890Z,65.05
2019-04-27T19:37:08.484Z,58.33
2019-04-27T19:39:39.346Z,62.25
2019-04-27T19:42:09.062Z,57.70
2019-04-27T19:44:38.940Z,58.58
2019-04-27T19:47:10.190Z,59.93
2019-04-27T19:49:40.061Z,64.32
2019-04-27T19:52:09.508Z,56.42
2019-04-27T19:54:39.778Z,69.27
2019-04-27T19:57:09.544Z,64.97
2019-04-27T19:59:44.732Z,69.75
2019-04-27T20:02:18.480Z,67.70
2019-04-27T20:04:55.709Z,61.18
2019-04-27T20:07:28.606Z,68.37
2019-04-27T20:10:02.098Z,65.25
2019-04-27T20:12:31.673Z,77.70
2019-04-27T20:15:02.294Z,80.10
2019-04-27T20:17:32.666Z,70.20
2019-04-27T20:20:03.147Z,77.62
2019-04-27T20:22:33.067Z,79.65
2019-04-27T20:25:02.851Z,89.65
2019-04-27T20:27:45.194Z,109.25
2019-04-27T20:30:04.088Z,76.37
2019-04-27T20:32:33.546Z,61.48
2019-04-27T20:35:03.069Z,49.85
2019-04-27T20:37:32.848Z,37.45
2019-04-27T20:40:02.612Z,28.45
2019-04-27T20:42:32.102Z,27.67
2019-04-27T20:45:02.194Z,24.23
2019-04-27T20:47:33.645Z,23.47
2019-04-27T20:50:03.445Z,25.40
2019-04-27T20:53:00.923Z,23.40
2019-04-27T20:55:32.193Z,23.92
2019-04-27T20:58:02.860Z,17.92
2019-04-27T21:00:32.517Z,17.23
